sensor_id;sensor_type;location;lat;lon;timestamp;P1;durP1;ratioP1;P2;durP2;ratioP2
60935;SDS011;46804;51.786;19.520;2022-11-11T00:02:20;30.42;;;15.38;;
60935;SDS011;46804;51.786;19.520;2022-11-11T00:06:20;29.50;;;13.55;;
60935;SDS011;46804;51.786;19.520;2022-11-11T00:10:21;25.67;;;13.20;;
60935;SDS011;46804;51.786;19.520;2022-11-11T00:14:22;27.83;;;15.07;;
60935;SDS011;46804;51.786;19.520;2022-11-11T00:18:22;29.17;;;15.02;;
60935;SDS011;46804;51.786;19.520;2022-11-11T00:22:42;43.10;;;19.40;;
60935;SDS011;46804;51.786;19.520;2022-11-11T00:27:01;45.67;;;21.85;;
60935;SDS011;46804;51.786;19.520;2022-11-11T00:31:02;78.05;;;31.00;;
60935;SDS011;46804;51.786;19.520;2022-11-11T00:35:04;46.58;;;24.50;;
60935;SDS011;46804;51.786;19.520;2022-11-11T00:39:24;38.42;;;19.65;;
60935;SDS011;46804;51.786;19.520;2022-11-11T00:43:24;54.00;;;24.50;;
60935;SDS011;46804;51.786;19.520;2022-11-11T00:47:25;41.72;;;20.73;;
60935;SDS011;46804;51.786;19.520;2022-11-11T00:51:44;48.15;;;24.40;;
60935;SDS011;46804;51.786;19.520;2022-11-11T00:55:45;42.47;;;23.90;;
60935;SDS011;46804;51.786;19.520;2022-11-11T00:59:46;59.83;;;25.73;;
60935;SDS011;46804;51.786;19.520;2022-11-11T01:03:46;55.15;;;25.42;;
60935;SDS011;46804;51.786;19.520;2022-11-11T01:07:50;39.88;;;20.60;;
60935;SDS011;46804;51.786;19.520;2022-11-11T01:11:50;45.35;;;23.17;;
60935;SDS011;46804;51.786;19.520;2022-11-11T01:15:51;45.08;;;22.88;;
60935;SDS011;46804;51.786;19.520;2022-11-11T01:19:57;57.75;;;24.10;;
60935;SDS011;46804;51.786;19.520;2022-11-11T01:23:58;44.05;;;23.05;;
60935;SDS011;46804;51.786;19.520;2022-11-11T01:27:58;50.20;;;24.20;;
60935;SDS011;46804;51.786;19.520;2022-11-11T01:31:59;44.70;;;22.17;;
60935;SDS011;46804;51.786;19.520;2022-11-11T01:36:03;38.53;;;21.17;;
60935;SDS011;46804;51.786;19.520;2022-11-11T01:40:10;44.35;;;20.30;;
60935;SDS011;46804;51.786;19.520;2022-11-11T01:48:13;43.67;;;20.20;;
60935;SDS011;46804;51.786;19.520;2022-11-11T01:52:37;39.80;;;19.85;;
60935;SDS011;46804;51.786;19.520;2022-11-11T01:56:42;44.65;;;19.08;;
60935;SDS011;46804;51.786;19.520;2022-11-11T02:00:47;34.45;;;16.55;;
60935;SDS011;46804;51.786;19.520;2022-11-11T02:04:47;32.13;;;17.00;;
60935;SDS011;46804;51.786;19.520;2022-11-11T02:09:07;28.95;;;15.32;;
60935;SDS011;46804;51.786;19.520;2022-11-11T02:13:12;26.52;;;15.63;;
60935;SDS011;46804;51.786;19.520;2022-11-11T02:17:33;30.77;;;17.15;;
60935;SDS011;46804;51.786;19.520;2022-11-11T02:21:41;32.78;;;18.42;;
60935;SDS011;46804;51.786;19.520;2022-11-11T02:25:47;29.70;;;15.90;;
60935;SDS011;46804;51.786;19.520;2022-11-11T02:29:49;36.47;;;17.93;;
60935;SDS011;46804;51.786;19.520;2022-11-11T02:37:53;28.88;;;14.15;;
60935;SDS011;46804;51.786;19.520;2022-11-11T02:41:54;24.98;;;13.38;;
60935;SDS011;46804;51.786;19.520;2022-11-11T02:49:58;22.17;;;11.38;;
60935;SDS011;46804;51.786;19.520;2022-11-11T02:53:59;23.75;;;12.52;;
60935;SDS011;46804;51.786;19.520;2022-11-11T02:58:02;29.73;;;13.80;;
60935;SDS011;46804;51.786;19.520;2022-11-11T03:02:03;27.85;;;13.82;;
60935;SDS011;46804;51.786;19.520;2022-11-11T03:06:04;27.67;;;15.23;;
60935;SDS011;46804;51.786;19.520;2022-11-11T03:10:05;26.90;;;14.27;;
60935;SDS011;46804;51.786;19.520;2022-11-11T03:14:06;28.08;;;14.18;;
60935;SDS011;46804;51.786;19.520;2022-11-11T03:18:07;36.00;;;14.50;;
60935;SDS011;46804;51.786;19.520;2022-11-11T03:22:07;34.60;;;14.65;;
60935;SDS011;46804;51.786;19.520;2022-11-11T03:26:08;28.98;;;13.57;;
60935;SDS011;46804;51.786;19.520;2022-11-11T03:30:09;30.25;;;13.43;;
60935;SDS011;46804;51.786;19.520;2022-11-11T03:34:10;29.85;;;13.93;;
60935;SDS011;46804;51.786;19.520;2022-11-11T03:38:20;29.75;;;15.07;;
60935;SDS011;46804;51.786;19.520;2022-11-11T03:42:24;38.13;;;15.43;;
60935;SDS011;46804;51.786;19.520;2022-11-11T03:46:24;28.40;;;14.48;;
60935;SDS011;46804;51.786;19.520;2022-11-11T03:50:25;33.80;;;15.30;;
60935;SDS011;46804;51.786;19.520;2022-11-11T03:54:25;27.85;;;14.23;;
60935;SDS011;46804;51.786;19.520;2022-11-11T03:58:26;27.50;;;14.85;;
60935;SDS011;46804;51.786;19.520;2022-11-11T04:02:26;35.95;;;15.70;;
60935;SDS011;46804;51.786;19.520;2022-11-11T04:06:46;24.60;;;14.23;;
60935;SDS011;46804;51.786;19.520;2022-11-11T04:11:08;27.38;;;14.32;;
60935;SDS011;46804;51.786;19.520;2022-11-11T04:15:12;33.55;;;13.95;;
60935;SDS011;46804;51.786;19.520;2022-11-11T04:19:31;34.90;;;16.23;;
60935;SDS011;46804;51.786;19.520;2022-11-11T04:23:50;35.00;;;14.98;;
60935;SDS011;46804;51.786;19.520;2022-11-11T04:27:51;30.77;;;16.33;;
60935;SDS011;46804;51.786;19.520;2022-11-11T04:32:13;31.15;;;14.90;;
60935;SDS011;46804;51.786;19.520;2022-11-11T04:36:33;25.83;;;13.13;;
60935;SDS011;46804;51.786;19.520;2022-11-11T04:40:34;26.80;;;13.68;;
60935;SDS011;46804;51.786;19.520;2022-11-11T04:44:53;28.67;;;14.10;;
60935;SDS011;46804;51.786;19.520;2022-11-11T04:49:13;33.22;;;16.27;;
60935;SDS011;46804;51.786;19.520;2022-11-11T04:53:13;29.85;;;15.40;;
60935;SDS011;46804;51.786;19.520;2022-11-11T04:57:14;33.30;;;16.33;;
60935;SDS011;46804;51.786;19.520;2022-11-11T05:01:15;29.83;;;13.93;;
60935;SDS011;46804;51.786;19.520;2022-11-11T05:05:35;25.52;;;13.45;;
60935;SDS011;46804;51.786;19.520;2022-11-11T05:09:54;33.20;;;13.80;;
60935;SDS011;46804;51.786;19.520;2022-11-11T05:13:57;25.45;;;12.77;;
60935;SDS011;46804;51.786;19.520;2022-11-11T05:18:17;26.00;;;13.25;;
60935;SDS011;46804;51.786;19.520;2022-11-11T05:22:40;21.85;;;12.35;;
60935;SDS011;46804;51.786;19.520;2022-11-11T05:26:42;24.55;;;13.95;;
60935;SDS011;46804;51.786;19.520;2022-11-11T05:30:42;36.13;;;13.82;;
60935;SDS011;46804;51.786;19.520;2022-11-11T05:34:43;24.67;;;13.77;;
60935;SDS011;46804;51.786;19.520;2022-11-11T05:38:44;31.08;;;13.50;;
60935;SDS011;46804;51.786;19.520;2022-11-11T05:42:44;28.25;;;13.90;;
60935;SDS011;46804;51.786;19.520;2022-11-11T05:46:45;31.35;;;14.32;;
60935;SDS011;46804;51.786;19.520;2022-11-11T05:50:45;28.80;;;13.93;;
60935;SDS011;46804;51.786;19.520;2022-11-11T05:54:46;29.80;;;13.00;;
60935;SDS011;46804;51.786;19.520;2022-11-11T05:58:46;30.25;;;13.93;;
60935;SDS011;46804;51.786;19.520;2022-11-11T06:02:47;26.75;;;13.48;;
60935;SDS011;46804;51.786;19.520;2022-11-11T06:06:48;29.42;;;14.15;;
60935;SDS011;46804;51.786;19.520;2022-11-11T06:10:49;32.10;;;13.40;;
60935;SDS011;46804;51.786;19.520;2022-11-11T06:14:50;35.38;;;15.50;;
60935;SDS011;46804;51.786;19.520;2022-11-11T06:18:51;29.23;;;14.13;;
60935;SDS011;46804;51.786;19.520;2022-11-11T06:22:51;31.73;;;15.05;;
60935;SDS011;46804;51.786;19.520;2022-11-11T06:26:58;28.38;;;13.38;;
60935;SDS011;46804;51.786;19.520;2022-11-11T06:30:59;33.17;;;14.30;;
60935;SDS011;46804;51.786;19.520;2022-11-11T06:34:59;28.45;;;14.38;;
60935;SDS011;46804;51.786;19.520;2022-11-11T06:39:00;26.77;;;14.65;;
60935;SDS011;46804;51.786;19.520;2022-11-11T06:43:00;26.33;;;14.38;;
60935;SDS011;46804;51.786;19.520;2022-11-11T06:47:01;31.25;;;14.23;;
60935;SDS011;46804;51.786;19.520;2022-11-11T06:51:05;38.13;;;15.18;;
60935;SDS011;46804;51.786;19.520;2022-11-11T06:55:06;22.63;;;13.73;;
60935;SDS011;46804;51.786;19.520;2022-11-11T06:59:07;26.40;;;14.45;;
60935;SDS011;46804;51.786;19.520;2022-11-11T07:03:08;30.35;;;13.73;;
60935;SDS011;46804;51.786;19.520;2022-11-11T07:11:11;35.75;;;15.20;;
60935;SDS011;46804;51.786;19.520;2022-11-11T07:15:13;29.25;;;14.30;;
60935;SDS011;46804;51.786;19.520;2022-11-11T07:19:14;36.70;;;15.20;;
60935;SDS011;46804;51.786;19.520;2022-11-11T07:23:14;27.17;;;13.60;;
60935;SDS011;46804;51.786;19.520;2022-11-11T07:27:16;22.38;;;12.52;;
60935;SDS011;46804;51.786;19.520;2022-11-11T07:31:17;25.88;;;13.00;;
60935;SDS011;46804;51.786;19.520;2022-11-11T07:35:17;32.40;;;11.88;;
60935;SDS011;46804;51.786;19.520;2022-11-11T07:39:20;22.75;;;11.15;;
60935;SDS011;46804;51.786;19.520;2022-11-11T07:43:20;25.15;;;12.35;;
60935;SDS011;46804;51.786;19.520;2022-11-11T07:47:21;29.95;;;13.80;;
60935;SDS011;46804;51.786;19.520;2022-11-11T07:51:21;25.75;;;11.75;;
60935;SDS011;46804;51.786;19.520;2022-11-11T07:55:22;23.77;;;11.88;;
60935;SDS011;46804;51.786;19.520;2022-11-11T07:59:22;25.33;;;14.25;;
60935;SDS011;46804;51.786;19.520;2022-11-11T08:03:23;29.52;;;16.83;;
60935;SDS011;46804;51.786;19.520;2022-11-11T08:07:23;29.73;;;15.73;;
60935;SDS011;46804;51.786;19.520;2022-11-11T08:11:24;32.53;;;18.48;;
60935;SDS011;46804;51.786;19.520;2022-11-11T08:15:44;29.05;;;11.90;;
60935;SDS011;46804;51.786;19.520;2022-11-11T08:19:44;24.05;;;14.80;;
60935;SDS011;46804;51.786;19.520;2022-11-11T08:23:45;20.83;;;11.52;;
60935;SDS011;46804;51.786;19.520;2022-11-11T08:27:45;30.52;;;16.83;;
60935;SDS011;46804;51.786;19.520;2022-11-11T08:31:46;25.70;;;16.48;;
60935;SDS011;46804;51.786;19.520;2022-11-11T08:35:47;85.72;;;45.85;;
60935;SDS011;46804;51.786;19.520;2022-11-11T08:39:47;41.45;;;18.27;;
60935;SDS011;46804;51.786;19.520;2022-11-11T08:43:51;32.53;;;13.50;;
60935;SDS011;46804;51.786;19.520;2022-11-11T08:47:52;20.10;;;9.52;;
60935;SDS011;46804;51.786;19.520;2022-11-11T08:51:53;29.58;;;14.57;;
60935;SDS011;46804;51.786;19.520;2022-11-11T08:55:53;85.20;;;31.75;;
60935;SDS011;46804;51.786;19.520;2022-11-11T08:59:54;15.57;;;8.45;;
60935;SDS011;46804;51.786;19.520;2022-11-11T09:03:55;23.52;;;9.63;;
60935;SDS011;46804;51.786;19.520;2022-11-11T09:07:55;18.38;;;8.57;;
60935;SDS011;46804;51.786;19.520;2022-11-11T09:12:00;12.25;;;7.60;;
60935;SDS011;46804;51.786;19.520;2022-11-11T09:16:01;15.68;;;7.60;;
60935;SDS011;46804;51.786;19.520;2022-11-11T09:20:01;14.32;;;7.43;;
60935;SDS011;46804;51.786;19.520;2022-11-11T09:24:02;14.63;;;7.57;;
60935;SDS011;46804;51.786;19.520;2022-11-11T09:28:03;14.68;;;6.75;;
60935;SDS011;46804;51.786;19.520;2022-11-11T09:32:04;15.05;;;7.25;;
60935;SDS011;46804;51.786;19.520;2022-11-11T09:36:04;13.57;;;6.47;;
60935;SDS011;46804;51.786;19.520;2022-11-11T09:40:06;16.08;;;7.85;;
60935;SDS011;46804;51.786;19.520;2022-11-11T09:44:10;15.88;;;7.75;;
60935;SDS011;46804;51.786;19.520;2022-11-11T09:53:09;55.03;;;24.97;;
60935;SDS011;46804;51.786;19.520;2022-11-11T10:01:53;25.33;;;13.23;;
60935;SDS011;46804;51.786;19.520;2022-11-11T10:06:08;21.10;;;9.38;;
60935;SDS011;46804;51.786;19.520;2022-11-11T10:14:51;18.48;;;8.85;;
60935;SDS011;46804;51.786;19.520;2022-11-11T10:23:15;16.73;;;7.65;;
60935;SDS011;46804;51.786;19.520;2022-11-11T10:27:19;16.13;;;7.25;;
60935;SDS011;46804;51.786;19.520;2022-11-11T10:31:21;14.02;;;6.55;;
60935;SDS011;46804;51.786;19.520;2022-11-11T10:35:23;11.65;;;6.22;;
60935;SDS011;46804;51.786;19.520;2022-11-11T10:39:31;15.20;;;5.65;;
60935;SDS011;46804;51.786;19.520;2022-11-11T10:43:43;17.27;;;6.65;;
60935;SDS011;46804;51.786;19.520;2022-11-11T10:47:46;12.40;;;5.32;;
60935;SDS011;46804;51.786;19.520;2022-11-11T10:52:03;13.52;;;6.32;;
60935;SDS011;46804;51.786;19.520;2022-11-11T11:00:30;13.95;;;6.43;;
60935;SDS011;46804;51.786;19.520;2022-11-11T11:04:52;16.23;;;6.13;;
60935;SDS011;46804;51.786;19.520;2022-11-11T11:09:00;15.43;;;6.70;;
60935;SDS011;46804;51.786;19.520;2022-11-11T11:17:53;15.70;;;7.88;;
60935;SDS011;46804;51.786;19.520;2022-11-11T11:22:00;14.68;;;6.13;;
60935;SDS011;46804;51.786;19.520;2022-11-11T11:26:01;15.45;;;6.95;;
60935;SDS011;46804;51.786;19.520;2022-11-11T11:30:11;16.98;;;6.57;;
60935;SDS011;46804;51.786;19.520;2022-11-11T11:34:16;9.75;;;5.65;;
60935;SDS011;46804;51.786;19.520;2022-11-11T11:38:17;12.55;;;6.68;;
60935;SDS011;46804;51.786;19.520;2022-11-11T11:42:51;16.83;;;7.25;;
60935;SDS011;46804;51.786;19.520;2022-11-11T11:46:45;23.65;;;8.32;;
60935;SDS011;46804;51.786;19.520;2022-11-11T11:50:54;20.05;;;7.55;;
60935;SDS011;46804;51.786;19.520;2022-11-11T11:55:10;22.40;;;8.95;;
60935;SDS011;46804;51.786;19.520;2022-11-11T11:59:33;16.25;;;8.25;;
60935;SDS011;46804;51.786;19.520;2022-11-11T12:08:32;22.40;;;7.60;;
60935;SDS011;46804;51.786;19.520;2022-11-11T12:12:42;14.02;;;6.30;;
60935;SDS011;46804;51.786;19.520;2022-11-11T12:16:52;13.90;;;5.95;;
60935;SDS011;46804;51.786;19.520;2022-11-11T12:21:15;17.40;;;6.25;;
60935;SDS011;46804;51.786;19.520;2022-11-11T12:25:17;17.67;;;7.05;;
60935;SDS011;46804;51.786;19.520;2022-11-11T12:33:47;14.10;;;7.30;;
60935;SDS011;46804;51.786;19.520;2022-11-11T12:46:38;16.10;;;7.00;;
60935;SDS011;46804;51.786;19.520;2022-11-11T12:55:34;12.32;;;6.07;;
60935;SDS011;46804;51.786;19.520;2022-11-11T13:08:32;10.23;;;5.90;;
60935;SDS011;46804;51.786;19.520;2022-11-11T13:13:08;19.80;;;6.72;;
60935;SDS011;46804;51.786;19.520;2022-11-11T13:17:19;12.57;;;5.28;;
60935;SDS011;46804;51.786;19.520;2022-11-11T13:25:42;13.38;;;5.63;;
60935;SDS011;46804;51.786;19.520;2022-11-11T13:30:03;10.70;;;4.30;;
60935;SDS011;46804;51.786;19.520;2022-11-11T13:38:24;10.25;;;4.18;;
60935;SDS011;46804;51.786;19.520;2022-11-11T13:42:27;10.98;;;5.13;;
60935;SDS011;46804;51.786;19.520;2022-11-11T13:46:45;13.95;;;5.93;;
60935;SDS011;46804;51.786;19.520;2022-11-11T13:50:49;22.13;;;8.45;;
60935;SDS011;46804;51.786;19.520;2022-11-11T13:55:07;22.58;;;9.90;;
60935;SDS011;46804;51.786;19.520;2022-11-11T13:59:28;12.15;;;5.30;;
60935;SDS011;46804;51.786;19.520;2022-11-11T14:03:36;9.45;;;4.43;;
60935;SDS011;46804;51.786;19.520;2022-11-11T14:11:43;7.53;;;4.40;;
60935;SDS011;46804;51.786;19.520;2022-11-11T14:15:44;12.68;;;4.53;;
60935;SDS011;46804;51.786;19.520;2022-11-11T14:19:48;10.25;;;4.32;;
60935;SDS011;46804;51.786;19.520;2022-11-11T14:23:51;11.02;;;4.93;;
60935;SDS011;46804;51.786;19.520;2022-11-11T14:27:52;16.13;;;5.90;;
60935;SDS011;46804;51.786;19.520;2022-11-11T14:36:16;10.55;;;5.38;;
60935;SDS011;46804;51.786;19.520;2022-11-11T14:40:25;13.75;;;5.00;;
60935;SDS011;46804;51.786;19.520;2022-11-11T14:52:53;10.43;;;5.60;;
60935;SDS011;46804;51.786;19.520;2022-11-11T14:56:57;26.80;;;9.90;;
60935;SDS011;46804;51.786;19.520;2022-11-11T15:01:03;13.00;;;5.97;;
60935;SDS011;46804;51.786;19.520;2022-11-11T15:05:15;12.30;;;5.05;;
60935;SDS011;46804;51.786;19.520;2022-11-11T15:18:02;15.13;;;6.18;;
60935;SDS011;46804;51.786;19.520;2022-11-11T15:39:49;11.30;;;6.13;;
60935;SDS011;46804;51.786;19.520;2022-11-11T15:43:52;15.20;;;6.78;;
60935;SDS011;46804;51.786;19.520;2022-11-11T15:47:53;14.10;;;6.95;;
60935;SDS011;46804;51.786;19.520;2022-11-11T15:51:57;12.60;;;5.75;;
60935;SDS011;46804;51.786;19.520;2022-11-11T15:55:57;13.52;;;6.53;;
60935;SDS011;46804;51.786;19.520;2022-11-11T16:00:01;11.57;;;5.20;;
60935;SDS011;46804;51.786;19.520;2022-11-11T16:04:19;14.93;;;6.60;;
60935;SDS011;46804;51.786;19.520;2022-11-11T16:12:23;15.05;;;6.70;;
60935;SDS011;46804;51.786;19.520;2022-11-11T16:16:31;16.20;;;6.22;;
60935;SDS011;46804;51.786;19.520;2022-11-11T16:20:36;14.20;;;5.72;;
60935;SDS011;46804;51.786;19.520;2022-11-11T16:24:41;10.38;;;5.45;;
60935;SDS011;46804;51.786;19.520;2022-11-11T16:28:54;14.35;;;5.82;;
60935;SDS011;46804;51.786;19.520;2022-11-11T16:32:56;12.32;;;5.43;;
60935;SDS011;46804;51.786;19.520;2022-11-11T16:37:06;15.40;;;6.38;;
60935;SDS011;46804;51.786;19.520;2022-11-11T16:41:25;13.23;;;6.45;;
60935;SDS011;46804;51.786;19.520;2022-11-11T16:45:27;10.70;;;6.13;;
60935;SDS011;46804;51.786;19.520;2022-11-11T16:53:45;13.65;;;6.35;;
60935;SDS011;46804;51.786;19.520;2022-11-11T16:57:51;13.88;;;6.03;;
60935;SDS011;46804;51.786;19.520;2022-11-11T17:01:52;14.40;;;6.68;;
60935;SDS011;46804;51.786;19.520;2022-11-11T17:05:54;11.63;;;6.15;;
60935;SDS011;46804;51.786;19.520;2022-11-11T17:18:08;15.88;;;6.43;;
60935;SDS011;46804;51.786;19.520;2022-11-11T17:22:10;12.35;;;6.47;;
60935;SDS011;46804;51.786;19.520;2022-11-11T17:26:11;11.88;;;7.13;;
60935;SDS011;46804;51.786;19.520;2022-11-11T17:30:12;14.85;;;5.82;;
60935;SDS011;46804;51.786;19.520;2022-11-11T17:34:12;12.30;;;5.85;;
60935;SDS011;46804;51.786;19.520;2022-11-11T17:38:13;14.73;;;7.10;;
60935;SDS011;46804;51.786;19.520;2022-11-11T17:42:13;12.63;;;6.68;;
60935;SDS011;46804;51.786;19.520;2022-11-11T17:46:14;15.52;;;7.47;;
60935;SDS011;46804;51.786;19.520;2022-11-11T17:50:15;14.20;;;7.15;;
60935;SDS011;46804;51.786;19.520;2022-11-11T17:54:15;16.67;;;7.47;;
60935;SDS011;46804;51.786;19.520;2022-11-11T17:58:16;14.20;;;7.72;;
60935;SDS011;46804;51.786;19.520;2022-11-11T18:02:18;16.00;;;8.10;;
60935;SDS011;46804;51.786;19.520;2022-11-11T18:06:19;19.23;;;8.45;;
60935;SDS011;46804;51.786;19.520;2022-11-11T18:10:19;22.77;;;8.50;;
60935;SDS011;46804;51.786;19.520;2022-11-11T18:14:20;15.45;;;7.88;;
60935;SDS011;46804;51.786;19.520;2022-11-11T18:18:21;19.63;;;8.25;;
60935;SDS011;46804;51.786;19.520;2022-11-11T18:22:22;16.10;;;7.25;;
60935;SDS011;46804;51.786;19.520;2022-11-11T18:26:23;17.95;;;8.45;;
60935;SDS011;46804;51.786;19.520;2022-11-11T18:30:23;18.88;;;8.18;;
60935;SDS011;46804;51.786;19.520;2022-11-11T18:34:24;18.15;;;8.55;;
60935;SDS011;46804;51.786;19.520;2022-11-11T18:38:27;17.80;;;8.82;;
60935;SDS011;46804;51.786;19.520;2022-11-11T18:42:29;17.50;;;8.63;;
60935;SDS011;46804;51.786;19.520;2022-11-11T18:46:30;20.98;;;8.63;;
60935;SDS011;46804;51.786;19.520;2022-11-11T18:50:31;17.55;;;8.27;;
60935;SDS011;46804;51.786;19.520;2022-11-11T18:54:31;16.00;;;8.57;;
60935;SDS011;46804;51.786;19.520;2022-11-11T18:58:32;22.45;;;9.27;;
60935;SDS011;46804;51.786;19.520;2022-11-11T19:02:34;21.75;;;10.10;;
60935;SDS011;46804;51.786;19.520;2022-11-11T19:06:35;19.13;;;8.35;;
60935;SDS011;46804;51.786;19.520;2022-11-11T19:10:40;16.55;;;8.27;;
60935;SDS011;46804;51.786;19.520;2022-11-11T19:14:41;17.17;;;8.07;;
60935;SDS011;46804;51.786;19.520;2022-11-11T19:18:41;18.50;;;7.53;;
60935;SDS011;46804;51.786;19.520;2022-11-11T19:22:42;14.85;;;7.40;;
60935;SDS011;46804;51.786;19.520;2022-11-11T19:26:42;14.95;;;7.85;;
60935;SDS011;46804;51.786;19.520;2022-11-11T19:30:46;13.95;;;7.90;;
60935;SDS011;46804;51.786;19.520;2022-11-11T19:34:47;14.10;;;7.50;;
60935;SDS011;46804;51.786;19.520;2022-11-11T19:38:48;16.80;;;7.65;;
60935;SDS011;46804;51.786;19.520;2022-11-11T19:42:48;15.68;;;8.65;;
60935;SDS011;46804;51.786;19.520;2022-11-11T19:46:49;14.38;;;7.57;;
60935;SDS011;46804;51.786;19.520;2022-11-11T19:50:49;12.43;;;7.53;;
60935;SDS011;46804;51.786;19.520;2022-11-11T19:54:50;15.98;;;7.75;;
60935;SDS011;46804;51.786;19.520;2022-11-11T19:58:51;15.02;;;8.38;;
60935;SDS011;46804;51.786;19.520;2022-11-11T20:02:51;13.30;;;7.32;;
60935;SDS011;46804;51.786;19.520;2022-11-11T20:06:52;12.93;;;7.68;;
60935;SDS011;46804;51.786;19.520;2022-11-11T20:10:52;13.75;;;7.30;;
60935;SDS011;46804;51.786;19.520;2022-11-11T20:14:53;17.48;;;8.45;;
60935;SDS011;46804;51.786;19.520;2022-11-11T20:18:54;15.65;;;7.85;;
60935;SDS011;46804;51.786;19.520;2022-11-11T20:22:55;17.42;;;9.20;;
60935;SDS011;46804;51.786;19.520;2022-11-11T20:26:56;22.45;;;9.30;;
60935;SDS011;46804;51.786;19.520;2022-11-11T20:30:56;19.58;;;8.35;;
60935;SDS011;46804;51.786;19.520;2022-11-11T20:34:57;19.42;;;9.10;;
60935;SDS011;46804;51.786;19.520;2022-11-11T20:38:57;18.95;;;9.25;;
60935;SDS011;46804;51.786;19.520;2022-11-11T20:42:58;20.80;;;9.05;;
60935;SDS011;46804;51.786;19.520;2022-11-11T20:46:59;16.15;;;8.18;;
60935;SDS011;46804;51.786;19.520;2022-11-11T20:51:04;16.83;;;8.32;;
60935;SDS011;46804;51.786;19.520;2022-11-11T20:55:06;19.77;;;7.53;;
60935;SDS011;46804;51.786;19.520;2022-11-11T20:59:07;19.55;;;8.95;;
60935;SDS011;46804;51.786;19.520;2022-11-11T21:03:07;19.25;;;9.55;;
60935;SDS011;46804;51.786;19.520;2022-11-11T21:07:08;16.10;;;7.95;;
60935;SDS011;46804;51.786;19.520;2022-11-11T21:11:11;19.33;;;8.70;;
60935;SDS011;46804;51.786;19.520;2022-11-11T21:19:14;19.38;;;9.07;;
60935;SDS011;46804;51.786;19.520;2022-11-11T21:23:15;17.98;;;7.90;;
60935;SDS011;46804;51.786;19.520;2022-11-11T21:27:16;17.92;;;8.23;;
60935;SDS011;46804;51.786;19.520;2022-11-11T21:31:17;21.88;;;8.98;;
60935;SDS011;46804;51.786;19.520;2022-11-11T21:35:21;17.98;;;8.80;;
60935;SDS011;46804;51.786;19.520;2022-11-11T21:39:24;25.77;;;11.40;;
60935;SDS011;46804;51.786;19.520;2022-11-11T21:43:24;20.13;;;10.52;;
60935;SDS011;46804;51.786;19.520;2022-11-11T21:47:25;24.58;;;11.13;;
60935;SDS011;46804;51.786;19.520;2022-11-11T21:51:29;26.02;;;11.57;;
60935;SDS011;46804;51.786;19.520;2022-11-11T21:55:31;20.05;;;11.13;;
60935;SDS011;46804;51.786;19.520;2022-11-11T21:59:31;26.45;;;12.05;;
60935;SDS011;46804;51.786;19.520;2022-11-11T22:03:36;19.30;;;10.70;;
60935;SDS011;46804;51.786;19.520;2022-11-11T22:07:38;21.40;;;11.45;;
60935;SDS011;46804;51.786;19.520;2022-11-11T22:11:39;22.50;;;11.30;;
60935;SDS011;46804;51.786;19.520;2022-11-11T22:15:39;24.05;;;11.43;;
60935;SDS011;46804;51.786;19.520;2022-11-11T22:19:40;24.45;;;9.88;;
60935;SDS011;46804;51.786;19.520;2022-11-11T22:23:41;20.48;;;10.27;;
60935;SDS011;46804;51.786;19.520;2022-11-11T22:27:46;20.90;;;10.52;;
60935;SDS011;46804;51.786;19.520;2022-11-11T22:31:46;22.65;;;11.43;;
60935;SDS011;46804;51.786;19.520;2022-11-11T22:35:47;21.35;;;10.55;;
60935;SDS011;46804;51.786;19.520;2022-11-11T22:39:47;22.10;;;11.10;;
60935;SDS011;46804;51.786;19.520;2022-11-11T22:43:48;23.85;;;10.95;;
60935;SDS011;46804;51.786;19.520;2022-11-11T22:47:49;18.23;;;10.98;;
60935;SDS011;46804;51.786;19.520;2022-11-11T22:51:50;19.80;;;9.65;;
60935;SDS011;46804;51.786;19.520;2022-11-11T22:55:50;17.38;;;9.88;;
60935;SDS011;46804;51.786;19.520;2022-11-11T22:59:51;23.90;;;11.60;;
60935;SDS011;46804;51.786;19.520;2022-11-11T23:03:52;19.67;;;11.18;;
60935;SDS011;46804;51.786;19.520;2022-11-11T23:07:54;27.77;;;12.85;;
60935;SDS011;46804;51.786;19.520;2022-11-11T23:11:55;26.50;;;11.95;;
60935;SDS011;46804;51.786;19.520;2022-11-11T23:15:56;24.33;;;12.43;;
60935;SDS011;46804;51.786;19.520;2022-11-11T23:19:57;29.45;;;13.35;;
60935;SDS011;46804;51.786;19.520;2022-11-11T23:23:58;26.90;;;12.85;;
60935;SDS011;46804;51.786;19.520;2022-11-11T23:27:58;21.98;;;12.85;;
60935;SDS011;46804;51.786;19.520;2022-11-11T23:31:59;22.15;;;12.18;;
60935;SDS011;46804;51.786;19.520;2022-11-11T23:36:00;22.88;;;12.18;;
60935;SDS011;46804;51.786;19.520;2022-11-11T23:40:02;23.45;;;12.27;;
60935;SDS011;46804;51.786;19.520;2022-11-11T23:44:02;26.17;;;13.82;;
60935;SDS011;46804;51.786;19.520;2022-11-11T23:48:04;29.05;;;13.25;;
60935;SDS011;46804;51.786;19.520;2022-11-11T23:52:04;25.58;;;12.93;;
60935;SDS011;46804;51.786;19.520;2022-11-11T23:56:05;21.27;;;11.75;;
